This is the latest recevied weather packets stored in our database for station/object N6RDS-8. If no packets are shown the sender has not sent any weather packets the latest 10 day(s).
| Time | Temp. | Humidity | Pressure | Rain* | Wind** | Luminosity | Snow |
|---|---|---|---|---|---|---|---|
| 1777299358 | 10.56° C | 51% | 1018.6 hPa | 0 mm | - | 126 W/m² | - |
| 1777299055 | 11.11° C | 49% | 1018.6 hPa | 0 mm | - | 113 W/m² | - |
| 1777298751 | 10° C | 52% | 1018.6 hPa | 0 mm | - | 102 W/m² | - |
| 1777298448 | 8.89° C | 53% | 1018.6 hPa | 0 mm | - | 91 W/m² | - |
| 1777298145 | 8.89° C | 53% | 1018.6 hPa | 0 mm | - | 81 W/m² | - |
| 1777297844 | 8.89° C | 53% | 1018.5 hPa | 0 mm | - | 71 W/m² | - |
| 1777297543 | 8.33° C | 55% | 1018.6 hPa | 0 mm | - | 63 W/m² | - |
| 1777297239 | 7.78° C | 56% | 1018.7 hPa | 0 mm | - | 55 W/m² | - |
| 1777296937 | 8.33° C | 55% | 1018.5 hPa | 0 mm | - | 48 W/m² | - |
| 1777296634 | 7.78° C | 56% | 1018.6 hPa | 0 mm | - | 41 W/m² | - |
| 1777296303 | 7.22° C | 57% | 1018.5 hPa | 0 mm | - | 35 W/m² | - |
| 1777295999 | 7.22° C | 57% | 1018.4 hPa | 0 mm | - | 30 W/m² | - |
| 1777295697 | 6.67° C | 60% | 1018.2 hPa | 0 mm | - | 26 W/m² | - |
| 1777295394 | 5.56° C | 62% | 1018 hPa | 0 mm | - | 22 W/m² | - |
| 1777295092 | 5° C | 63% | 1018.4 hPa | 0 mm | - | 18 W/m² | - |
| 1777294788 | 4.44° C | 65% | 1018.2 hPa | 0 mm | - | 14 W/m² | - |
| 1777294483 | 3.89° C | 67% | 1018 hPa | 0 mm | - | 11 W/m² | - |
| 1777294181 | 3.89° C | 65% | 1018 hPa | 0 mm | - | 8 W/m² | - |
| 1777293878 | 3.89° C | 66% | 1017.8 hPa | 0 mm | - | 5 W/m² | - |
| 1777293573 | 3.89° C | 65% | 1017.9 hPa | 0 mm | - | 3 W/m² | - |
| 1777293268 | 3.89° C | 69% | 1017.8 hPa | 0 mm | - | 2 W/m² | - |
| 1777292968 | 3.89° C | 68% | 1017.7 hPa | 0 mm | - | 1 W/m² | - |
| 1777292663 | 4.44° C | 66% | 1017.5 hPa | 0 mm | - | 0 W/m² | - |
| 1777292360 | 4.44° C | 66% | 1017.6 hPa | 0 mm | - | 0 W/m² | - |
| 1777292056 | 4.44° C | 65% | 1017.8 hPa | 0 mm | - | 0 W/m² | - |
* Rain latest hour (hover to see other rain measurements)
** Current wind speed in m/s (hover to see current wind gust speed)